sensor_id;sensor_type;location;lat;lon;timestamp;temperature;humidity
51613;DHT22;37694;51.748;14.326;2022-07-19T00:00:46;20.90;45.30
51613;DHT22;37694;51.748;14.326;2022-07-19T00:03:14;20.90;45.30
51613;DHT22;37694;51.748;14.326;2022-07-19T00:05:39;20.90;45.40
51613;DHT22;37694;51.748;14.326;2022-07-19T00:08:05;20.90;45.30
51613;DHT22;37694;51.748;14.326;2022-07-19T00:10:31;20.90;46.10
51613;DHT22;37694;51.748;14.326;2022-07-19T00:12:56;20.90;45.30
51613;DHT22;37694;51.748;14.326;2022-07-19T00:15:23;20.90;45.20
51613;DHT22;37694;51.748;14.326;2022-07-19T00:17:49;20.80;45.20
51613;DHT22;37694;51.748;14.326;2022-07-19T00:20:18;20.80;45.20
51613;DHT22;37694;51.748;14.326;2022-07-19T00:22:44;20.80;45.20
51613;DHT22;37694;51.748;14.326;2022-07-19T00:25:10;20.80;45.30
51613;DHT22;37694;51.748;14.326;2022-07-19T00:27:36;20.70;45.30
51613;DHT22;37694;51.748;14.326;2022-07-19T00:30:04;20.70;46.20
51613;DHT22;37694;51.748;14.326;2022-07-19T00:32:30;20.80;47.10
51613;DHT22;37694;51.748;14.326;2022-07-19T00:34:55;20.80;47.70
51613;DHT22;37694;51.748;14.326;2022-07-19T00:37:21;20.90;48.10
51613;DHT22;37694;51.748;14.326;2022-07-19T00:39:47;20.90;48.90
51613;DHT22;37694;51.748;14.326;2022-07-19T00:42:12;21.00;49.10
51613;DHT22;37694;51.748;14.326;2022-07-19T00:44:40;21.00;49.50
51613;DHT22;37694;51.748;14.326;2022-07-19T00:47:06;21.00;50.00
51613;DHT22;37694;51.748;14.326;2022-07-19T00:49:32;21.10;50.30
51613;DHT22;37694;51.748;14.326;2022-07-19T00:51:57;21.00;50.50
51613;DHT22;37694;51.748;14.326;2022-07-19T00:54:25;21.10;50.80
51613;DHT22;37694;51.748;14.326;2022-07-19T00:56:51;21.10;51.10
51613;DHT22;37694;51.748;14.326;2022-07-19T00:59:18;21.10;51.30
51613;DHT22;37694;51.748;14.326;2022-07-19T01:01:44;21.10;51.50
51613;DHT22;37694;51.748;14.326;2022-07-19T01:04:11;21.10;51.70
51613;DHT22;37694;51.748;14.326;2022-07-19T01:06:37;21.10;51.80
51613;DHT22;37694;51.748;14.326;2022-07-19T01:09:03;21.20;52.10
51613;DHT22;37694;51.748;14.326;2022-07-19T01:11:29;21.10;52.90
51613;DHT22;37694;51.748;14.326;2022-07-19T01:13:55;21.10;52.30
51613;DHT22;37694;51.748;14.326;2022-07-19T01:16:20;21.10;52.20
51613;DHT22;37694;51.748;14.326;2022-07-19T01:18:46;21.20;52.40
51613;DHT22;37694;51.748;14.326;2022-07-19T01:21:22;21.20;52.70
51613;DHT22;37694;51.748;14.326;2022-07-19T01:23:49;21.20;52.50
51613;DHT22;37694;51.748;14.326;2022-07-19T01:26:15;21.10;52.70
51613;DHT22;37694;51.748;14.326;2022-07-19T01:28:41;21.20;52.80
51613;DHT22;37694;51.748;14.326;2022-07-19T01:31:07;21.20;53.00
51613;DHT22;37694;51.748;14.326;2022-07-19T01:33:37;21.20;52.90
51613;DHT22;37694;51.748;14.326;2022-07-19T01:36:02;21.20;53.00
51613;DHT22;37694;51.748;14.326;2022-07-19T01:38:28;21.20;53.20
51613;DHT22;37694;51.748;14.326;2022-07-19T01:40:54;21.20;53.10
51613;DHT22;37694;51.748;14.326;2022-07-19T01:43:19;21.30;53.10
51613;DHT22;37694;51.748;14.326;2022-07-19T01:45:45;21.20;53.00
51613;DHT22;37694;51.748;14.326;2022-07-19T01:48:10;21.20;53.20
51613;DHT22;37694;51.748;14.326;2022-07-19T01:50:36;21.20;53.20
51613;DHT22;37694;51.748;14.326;2022-07-19T01:53:02;21.20;53.30
51613;DHT22;37694;51.748;14.326;2022-07-19T01:55:27;21.20;53.30
51613;DHT22;37694;51.748;14.326;2022-07-19T01:57:53;21.20;53.30
51613;DHT22;37694;51.748;14.326;2022-07-19T02:00:18;21.20;53.40
51613;DHT22;37694;51.748;14.326;2022-07-19T02:02:44;21.20;53.40
51613;DHT22;37694;51.748;14.326;2022-07-19T02:05:10;21.20;53.40
51613;DHT22;37694;51.748;14.326;2022-07-19T02:07:35;21.20;53.40
51613;DHT22;37694;51.748;14.326;2022-07-19T02:10:01;21.20;53.40
51613;DHT22;37694;51.748;14.326;2022-07-19T02:12:27;21.20;53.40
51613;DHT22;37694;51.748;14.326;2022-07-19T02:14:52;21.20;53.40
51613;DHT22;37694;51.748;14.326;2022-07-19T02:17:18;21.20;53.40
51613;DHT22;37694;51.748;14.326;2022-07-19T02:19:44;21.20;53.50
51613;DHT22;37694;51.748;14.326;2022-07-19T02:22:09;21.20;53.10
51613;DHT22;37694;51.748;14.326;2022-07-19T02:24:35;21.20;53.50
51613;DHT22;37694;51.748;14.326;2022-07-19T02:27:00;21.20;53.60
51613;DHT22;37694;51.748;14.326;2022-07-19T02:29:26;21.20;53.60
51613;DHT22;37694;51.748;14.326;2022-07-19T02:31:51;21.20;53.60
51613;DHT22;37694;51.748;14.326;2022-07-19T02:34:17;21.20;53.60
51613;DHT22;37694;51.748;14.326;2022-07-19T02:36:43;21.20;53.60
51613;DHT22;37694;51.748;14.326;2022-07-19T02:39:09;21.20;53.60
51613;DHT22;37694;51.748;14.326;2022-07-19T02:41:34;21.20;53.50
51613;DHT22;37694;51.748;14.326;2022-07-19T02:44:00;21.20;53.50
51613;DHT22;37694;51.748;14.326;2022-07-19T02:46:25;21.20;53.60
51613;DHT22;37694;51.748;14.326;2022-07-19T02:48:51;21.30;53.60
51613;DHT22;37694;51.748;14.326;2022-07-19T02:51:17;21.20;53.60
51613;DHT22;37694;51.748;14.326;2022-07-19T02:53:42;21.20;53.60
51613;DHT22;37694;51.748;14.326;2022-07-19T02:56:08;21.20;53.70
51613;DHT22;37694;51.748;14.326;2022-07-19T02:58:33;21.20;53.80
51613;DHT22;37694;51.748;14.326;2022-07-19T03:00:59;21.20;53.70
51613;DHT22;37694;51.748;14.326;2022-07-19T03:03:25;21.20;53.80
51613;DHT22;37694;51.748;14.326;2022-07-19T03:06:09;21.20;53.80
51613;DHT22;37694;51.748;14.326;2022-07-19T03:08:34;21.10;54.00
51613;DHT22;37694;51.748;14.326;2022-07-19T03:11:00;21.10;54.00
51613;DHT22;37694;51.748;14.326;2022-07-19T03:13:26;21.20;54.00
51613;DHT22;37694;51.748;14.326;2022-07-19T03:15:51;21.20;53.90
51613;DHT22;37694;51.748;14.326;2022-07-19T03:18:17;21.10;53.90
51613;DHT22;37694;51.748;14.326;2022-07-19T03:20:42;21.20;53.90
51613;DHT22;37694;51.748;14.326;2022-07-19T03:23:08;21.20;53.90
51613;DHT22;37694;51.748;14.326;2022-07-19T03:25:34;21.10;54.70
51613;DHT22;37694;51.748;14.326;2022-07-19T03:27:59;21.10;53.90
51613;DHT22;37694;51.748;14.326;2022-07-19T03:30:25;21.20;53.90
51613;DHT22;37694;51.748;14.326;2022-07-19T03:32:50;21.10;53.90
51613;DHT22;37694;51.748;14.326;2022-07-19T03:35:16;21.20;53.90
51613;DHT22;37694;51.748;14.326;2022-07-19T03:37:42;21.20;53.90
51613;DHT22;37694;51.748;14.326;2022-07-19T03:40:08;21.10;53.80
51613;DHT22;37694;51.748;14.326;2022-07-19T03:42:34;21.10;53.70
51613;DHT22;37694;51.748;14.326;2022-07-19T03:45:00;21.10;53.80
51613;DHT22;37694;51.748;14.326;2022-07-19T03:47:25;21.10;53.80
51613;DHT22;37694;51.748;14.326;2022-07-19T03:49:51;21.20;53.90
51613;DHT22;37694;51.748;14.326;2022-07-19T03:52:17;21.10;53.90
51613;DHT22;37694;51.748;14.326;2022-07-19T03:54:42;21.10;53.90
51613;DHT22;37694;51.748;14.326;2022-07-19T03:57:08;21.10;53.90
51613;DHT22;37694;51.748;14.326;2022-07-19T03:59:33;21.10;53.90
51613;DHT22;37694;51.748;14.326;2022-07-19T04:01:59;21.10;53.90
51613;DHT22;37694;51.748;14.326;2022-07-19T04:04:24;21.10;53.80
51613;DHT22;37694;51.748;14.326;2022-07-19T04:06:50;21.10;53.80
51613;DHT22;37694;51.748;14.326;2022-07-19T04:09:16;21.10;53.90
51613;DHT22;37694;51.748;14.326;2022-07-19T04:11:41;21.10;53.90
51613;DHT22;37694;51.748;14.326;2022-07-19T04:14:07;21.10;53.70
51613;DHT22;37694;51.748;14.326;2022-07-19T04:16:33;21.10;53.70
51613;DHT22;37694;51.748;14.326;2022-07-19T04:18:58;21.10;53.70
51613;DHT22;37694;51.748;14.326;2022-07-19T04:21:24;21.10;53.40
51613;DHT22;37694;51.748;14.326;2022-07-19T04:23:50;21.10;53.80
51613;DHT22;37694;51.748;14.326;2022-07-19T04:26:15;21.10;53.90
51613;DHT22;37694;51.748;14.326;2022-07-19T04:28:41;21.20;54.80
51613;DHT22;37694;51.748;14.326;2022-07-19T04:31:06;21.20;53.50
51613;DHT22;37694;51.748;14.326;2022-07-19T04:33:32;21.40;53.00
51613;DHT22;37694;51.748;14.326;2022-07-19T04:35:57;21.50;52.50
51613;DHT22;37694;51.748;14.326;2022-07-19T04:38:23;21.70;52.20
51613;DHT22;37694;51.748;14.326;2022-07-19T04:40:49;21.80;51.90
51613;DHT22;37694;51.748;14.326;2022-07-19T04:43:17;22.00;51.70
51613;DHT22;37694;51.748;14.326;2022-07-19T04:45:43;22.10;51.50
51613;DHT22;37694;51.748;14.326;2022-07-19T04:48:10;22.10;51.20
51613;DHT22;37694;51.748;14.326;2022-07-19T04:50:36;22.20;51.10
51613;DHT22;37694;51.748;14.326;2022-07-19T04:53:02;22.30;50.90
51613;DHT22;37694;51.748;14.326;2022-07-19T04:55:28;22.30;50.80
51613;DHT22;37694;51.748;14.326;2022-07-19T04:57:53;22.40;50.70
51613;DHT22;37694;51.748;14.326;2022-07-19T05:00:19;22.40;50.50
51613;DHT22;37694;51.748;14.326;2022-07-19T05:02:45;22.50;50.50
51613;DHT22;37694;51.748;14.326;2022-07-19T05:05:11;22.50;50.40
51613;DHT22;37694;51.748;14.326;2022-07-19T05:07:36;22.50;50.30
51613;DHT22;37694;51.748;14.326;2022-07-19T05:10:03;22.60;50.20
51613;DHT22;37694;51.748;14.326;2022-07-19T05:12:30;22.60;50.50
51613;DHT22;37694;51.748;14.326;2022-07-19T05:14:55;22.70;50.50
51613;DHT22;37694;51.748;14.326;2022-07-19T05:17:21;22.70;50.60
51613;DHT22;37694;51.748;14.326;2022-07-19T05:19:47;22.80;50.70
51613;DHT22;37694;51.748;14.326;2022-07-19T05:22:12;22.80;50.60
51613;DHT22;37694;51.748;14.326;2022-07-19T05:24:38;22.90;51.50
51613;DHT22;37694;51.748;14.326;2022-07-19T05:27:03;22.90;51.10
51613;DHT22;37694;51.748;14.326;2022-07-19T05:29:29;22.90;51.20
51613;DHT22;37694;51.748;14.326;2022-07-19T05:31:55;23.00;51.10
51613;DHT22;37694;51.748;14.326;2022-07-19T05:34:20;23.00;51.20
51613;DHT22;37694;51.748;14.326;2022-07-19T05:36:46;23.10;51.50
51613;DHT22;37694;51.748;14.326;2022-07-19T05:39:11;23.10;51.50
51613;DHT22;37694;51.748;14.326;2022-07-19T05:41:37;23.20;51.50
51613;DHT22;37694;51.748;14.326;2022-07-19T05:44:03;23.30;51.50
51613;DHT22;37694;51.748;14.326;2022-07-19T05:46:28;23.30;51.40
51613;DHT22;37694;51.748;14.326;2022-07-19T05:48:54;23.30;51.50
51613;DHT22;37694;51.748;14.326;2022-07-19T05:51:20;23.30;51.20
51613;DHT22;37694;51.748;14.326;2022-07-19T05:53:45;23.40;51.40
51613;DHT22;37694;51.748;14.326;2022-07-19T05:56:11;23.40;52.30
51613;DHT22;37694;51.748;14.326;2022-07-19T05:58:37;23.40;51.70
51613;DHT22;37694;51.748;14.326;2022-07-19T06:01:03;23.50;51.40
51613;DHT22;37694;51.748;14.326;2022-07-19T06:03:46;23.20;48.80
51613;DHT22;37694;51.748;14.326;2022-07-19T06:06:12;22.90;50.30
51613;DHT22;37694;51.748;14.326;2022-07-19T06:08:39;22.60;51.10
51613;DHT22;37694;51.748;14.326;2022-07-19T06:11:05;22.50;51.90
51613;DHT22;37694;51.748;14.326;2022-07-19T06:13:30;22.50;52.10
51613;DHT22;37694;51.748;14.326;2022-07-19T06:15:56;22.50;52.40
51613;DHT22;37694;51.748;14.326;2022-07-19T06:18:22;22.60;52.50
51613;DHT22;37694;51.748;14.326;2022-07-19T06:20:47;22.50;52.70
51613;DHT22;37694;51.748;14.326;2022-07-19T06:23:13;22.50;52.50
51613;DHT22;37694;51.748;14.326;2022-07-19T06:25:39;22.40;52.60
51613;DHT22;37694;51.748;14.326;2022-07-19T06:28:04;22.30;52.70
51613;DHT22;37694;51.748;14.326;2022-07-19T06:30:30;22.20;52.80
51613;DHT22;37694;51.748;14.326;2022-07-19T06:32:56;22.20;53.10
51613;DHT22;37694;51.748;14.326;2022-07-19T06:35:21;22.20;52.80
51613;DHT22;37694;51.748;14.326;2022-07-19T06:37:47;22.10;52.90
51613;DHT22;37694;51.748;14.326;2022-07-19T06:40:12;22.10;52.90
51613;DHT22;37694;51.748;14.326;2022-07-19T06:42:38;22.00;53.00
51613;DHT22;37694;51.748;14.326;2022-07-19T06:45:04;21.90;53.10
51613;DHT22;37694;51.748;14.326;2022-07-19T06:47:30;21.90;53.30
51613;DHT22;37694;51.748;14.326;2022-07-19T06:49:58;21.90;53.20
51613;DHT22;37694;51.748;14.326;2022-07-19T06:52:24;21.80;53.20
51613;DHT22;37694;51.748;14.326;2022-07-19T06:54:50;21.80;53.20
51613;DHT22;37694;51.748;14.326;2022-07-19T06:57:15;21.80;53.20
51613;DHT22;37694;51.748;14.326;2022-07-19T06:59:41;21.80;53.20
51613;DHT22;37694;51.748;14.326;2022-07-19T07:02:07;21.80;53.10
51613;DHT22;37694;51.748;14.326;2022-07-19T07:04:32;21.80;52.90
51613;DHT22;37694;51.748;14.326;2022-07-19T07:06:58;21.80;53.10
51613;DHT22;37694;51.748;14.326;2022-07-19T07:09:23;21.80;53.00
51613;DHT22;37694;51.748;14.326;2022-07-19T07:11:49;21.70;53.10
51613;DHT22;37694;51.748;14.326;2022-07-19T07:14:15;21.70;53.10
51613;DHT22;37694;51.748;14.326;2022-07-19T07:16:41;21.70;53.20
51613;DHT22;37694;51.748;14.326;2022-07-19T07:19:06;21.70;53.20
51613;DHT22;37694;51.748;14.326;2022-07-19T07:21:32;21.70;53.10
51613;DHT22;37694;51.748;14.326;2022-07-19T07:24:01;21.70;53.10
51613;DHT22;37694;51.748;14.326;2022-07-19T07:26:27;21.70;53.20
51613;DHT22;37694;51.748;14.326;2022-07-19T07:28:53;21.70;53.20
51613;DHT22;37694;51.748;14.326;2022-07-19T07:31:19;21.60;53.20
51613;DHT22;37694;51.748;14.326;2022-07-19T07:33:44;21.70;53.00
51613;DHT22;37694;51.748;14.326;2022-07-19T07:36:10;21.60;53.10
51613;DHT22;37694;51.748;14.326;2022-07-19T07:38:35;21.70;54.00
51613;DHT22;37694;51.748;14.326;2022-07-19T07:41:01;21.70;53.10
51613;DHT22;37694;51.748;14.326;2022-07-19T07:43:28;21.70;53.10
51613;DHT22;37694;51.748;14.326;2022-07-19T07:45:53;21.60;53.00
51613;DHT22;37694;51.748;14.326;2022-07-19T07:48:19;21.60;53.10
51613;DHT22;37694;51.748;14.326;2022-07-19T07:50:44;21.70;53.00
51613;DHT22;37694;51.748;14.326;2022-07-19T07:53:10;21.70;53.10
51613;DHT22;37694;51.748;14.326;2022-07-19T07:55:36;21.70;53.00
51613;DHT22;37694;51.748;14.326;2022-07-19T07:58:08;21.70;53.00
51613;DHT22;37694;51.748;14.326;2022-07-19T08:00:35;21.70;53.00
51613;DHT22;37694;51.748;14.326;2022-07-19T08:03:01;21.70;52.60
51613;DHT22;37694;51.748;14.326;2022-07-19T08:05:26;21.70;52.90
51613;DHT22;37694;51.748;14.326;2022-07-19T08:07:52;21.70;52.90
51613;DHT22;37694;51.748;14.326;2022-07-19T08:10:20;21.70;53.00
51613;DHT22;37694;51.748;14.326;2022-07-19T08:12:46;21.70;53.00
51613;DHT22;37694;51.748;14.326;2022-07-19T08:15:12;21.70;53.00
51613;DHT22;37694;51.748;14.326;2022-07-19T08:17:37;21.70;52.90
51613;DHT22;37694;51.748;14.326;2022-07-19T08:20:04;21.70;53.00
51613;DHT22;37694;51.748;14.326;2022-07-19T08:22:30;21.70;53.00
51613;DHT22;37694;51.748;14.326;2022-07-19T08:24:55;21.70;53.00
51613;DHT22;37694;51.748;14.326;2022-07-19T08:27:21;21.70;53.00
51613;DHT22;37694;51.748;14.326;2022-07-19T08:29:47;21.80;53.10
51613;DHT22;37694;51.748;14.326;2022-07-19T08:32:12;21.80;53.00
51613;DHT22;37694;51.748;14.326;2022-07-19T08:34:38;21.80;53.00
51613;DHT22;37694;51.748;14.326;2022-07-19T08:37:03;21.80;53.00
51613;DHT22;37694;51.748;14.326;2022-07-19T08:39:29;21.80;53.10
51613;DHT22;37694;51.748;14.326;2022-07-19T08:41:55;21.80;53.00
51613;DHT22;37694;51.748;14.326;2022-07-19T08:44:22;21.80;52.90
51613;DHT22;37694;51.748;14.326;2022-07-19T08:46:48;21.90;53.00
51613;DHT22;37694;51.748;14.326;2022-07-19T08:49:14;21.80;52.90
51613;DHT22;37694;51.748;14.326;2022-07-19T08:51:41;21.80;52.80
51613;DHT22;37694;51.748;14.326;2022-07-19T08:54:08;21.90;52.80
51613;DHT22;37694;51.748;14.326;2022-07-19T08:56:33;21.90;52.70
51613;DHT22;37694;51.748;14.326;2022-07-19T08:59:18;21.90;52.80
51613;DHT22;37694;51.748;14.326;2022-07-19T09:01:43;21.90;52.70
51613;DHT22;37694;51.748;14.326;2022-07-19T09:04:16;21.90;52.70
51613;DHT22;37694;51.748;14.326;2022-07-19T09:06:48;21.90;52.70
51613;DHT22;37694;51.748;14.326;2022-07-19T09:09:16;22.00;52.70
51613;DHT22;37694;51.748;14.326;2022-07-19T09:11:45;21.90;52.60
51613;DHT22;37694;51.748;14.326;2022-07-19T09:14:16;21.90;52.50
51613;DHT22;37694;51.748;14.326;2022-07-19T09:19:15;22.00;52.40
51613;DHT22;37694;51.748;14.326;2022-07-19T09:24:17;22.00;52.40
51613;DHT22;37694;51.748;14.326;2022-07-19T09:29:24;22.10;52.30
51613;DHT22;37694;51.748;14.326;2022-07-19T09:32:15;22.10;52.40
51613;DHT22;37694;51.748;14.326;2022-07-19T09:35:02;22.10;52.10
51613;DHT22;37694;51.748;14.326;2022-07-19T09:37:30;22.00;52.20
51613;DHT22;37694;51.748;14.326;2022-07-19T09:40:02;22.00;52.20
51613;DHT22;37694;51.748;14.326;2022-07-19T09:42:43;22.00;52.10
51613;DHT22;37694;51.748;14.326;2022-07-19T09:45:14;22.00;52.00
51613;DHT22;37694;51.748;14.326;2022-07-19T09:47:44;22.00;52.10
51613;DHT22;37694;51.748;14.326;2022-07-19T09:50:18;21.90;52.20
51613;DHT22;37694;51.748;14.326;2022-07-19T09:52:48;21.90;52.10
51613;DHT22;37694;51.748;14.326;2022-07-19T09:55:16;21.90;52.10
51613;DHT22;37694;51.748;14.326;2022-07-19T09:57:47;21.90;52.00
51613;DHT22;37694;51.748;14.326;2022-07-19T10:00:14;21.90;51.90
51613;DHT22;37694;51.748;14.326;2022-07-19T10:02:43;22.00;51.60
51613;DHT22;37694;51.748;14.326;2022-07-19T10:05:10;21.90;51.70
51613;DHT22;37694;51.748;14.326;2022-07-19T10:07:36;22.00;51.90
51613;DHT22;37694;51.748;14.326;2022-07-19T10:10:08;21.90;51.70
51613;DHT22;37694;51.748;14.326;2022-07-19T10:12:37;21.90;51.60
51613;DHT22;37694;51.748;14.326;2022-07-19T10:15:06;22.00;51.60
51613;DHT22;37694;51.748;14.326;2022-07-19T10:17:37;21.90;51.30
51613;DHT22;37694;51.748;14.326;2022-07-19T10:20:06;21.90;51.20
51613;DHT22;37694;51.748;14.326;2022-07-19T10:22:33;21.90;51.10
51613;DHT22;37694;51.748;14.326;2022-07-19T10:25:10;21.90;50.80
51613;DHT22;37694;51.748;14.326;2022-07-19T10:27:41;22.00;50.70
51613;DHT22;37694;51.748;14.326;2022-07-19T10:32:36;21.90;50.20
51613;DHT22;37694;51.748;14.326;2022-07-19T10:35:22;21.90;50.10
51613;DHT22;37694;51.748;14.326;2022-07-19T10:38:10;21.90;49.50
51613;DHT22;37694;51.748;14.326;2022-07-19T10:40:48;21.90;49.50
51613;DHT22;37694;51.748;14.326;2022-07-19T10:43:15;21.90;49.50
51613;DHT22;37694;51.748;14.326;2022-07-19T10:49:02;22.00;49.00
51613;DHT22;37694;51.748;14.326;2022-07-19T10:51:33;22.00;48.60
51613;DHT22;37694;51.748;14.326;2022-07-19T10:54:04;21.80;48.90
51613;DHT22;37694;51.748;14.326;2022-07-19T10:56:41;21.90;48.70
51613;DHT22;37694;51.748;14.326;2022-07-19T10:59:10;21.80;48.80
51613;DHT22;37694;51.748;14.326;2022-07-19T11:01:38;21.90;48.40
51613;DHT22;37694;51.748;14.326;2022-07-19T11:09:53;22.00;47.20
51613;DHT22;37694;51.748;14.326;2022-07-19T11:12:21;22.10;47.10
51613;DHT22;37694;51.748;14.326;2022-07-19T11:14:47;22.10;47.30
51613;DHT22;37694;51.748;14.326;2022-07-19T11:17:12;22.10;47.20
51613;DHT22;37694;51.748;14.326;2022-07-19T11:20:03;22.10;47.10
51613;DHT22;37694;51.748;14.326;2022-07-19T11:22:42;22.10;46.70
51613;DHT22;37694;51.748;14.326;2022-07-19T11:25:10;22.10;46.50
51613;DHT22;37694;51.748;14.326;2022-07-19T11:27:39;22.10;46.60
51613;DHT22;37694;51.748;14.326;2022-07-19T11:30:06;22.20;46.60
51613;DHT22;37694;51.748;14.326;2022-07-19T11:32:32;22.20;46.50
51613;DHT22;37694;51.748;14.326;2022-07-19T11:35:04;22.20;46.30
51613;DHT22;37694;51.748;14.326;2022-07-19T11:37:35;22.20;46.10
51613;DHT22;37694;51.748;14.326;2022-07-19T11:40:01;22.20;46.10
51613;DHT22;37694;51.748;14.326;2022-07-19T11:42:42;22.20;46.10
51613;DHT22;37694;51.748;14.326;2022-07-19T11:45:09;22.20;46.00
51613;DHT22;37694;51.748;14.326;2022-07-19T11:47:35;22.30;46.00
51613;DHT22;37694;51.748;14.326;2022-07-19T11:50:05;22.30;45.80
51613;DHT22;37694;51.748;14.326;2022-07-19T11:52:43;22.30;45.60
51613;DHT22;37694;51.748;14.326;2022-07-19T11:55:09;22.30;45.20
51613;DHT22;37694;51.748;14.326;2022-07-19T11:57:35;22.30;45.50
51613;DHT22;37694;51.748;14.326;2022-07-19T12:00:01;22.30;45.30
51613;DHT22;37694;51.748;14.326;2022-07-19T12:02:27;22.30;45.30
51613;DHT22;37694;51.748;14.326;2022-07-19T12:04:53;22.40;45.50
51613;DHT22;37694;51.748;14.326;2022-07-19T12:07:19;22.40;45.30
51613;DHT22;37694;51.748;14.326;2022-07-19T12:09:45;22.40;45.30
51613;DHT22;37694;51.748;14.326;2022-07-19T12:12:15;22.40;45.20
51613;DHT22;37694;51.748;14.326;2022-07-19T12:14:43;22.40;45.40
51613;DHT22;37694;51.748;14.326;2022-07-19T12:17:19;22.40;45.60
51613;DHT22;37694;51.748;14.326;2022-07-19T12:19:50;22.30;45.70
51613;DHT22;37694;51.748;14.326;2022-07-19T12:22:45;22.30;45.70
51613;DHT22;37694;51.748;14.326;2022-07-19T12:25:11;22.30;45.50
51613;DHT22;37694;51.748;14.326;2022-07-19T12:27:37;22.30;45.50
51613;DHT22;37694;51.748;14.326;2022-07-19T12:30:04;22.30;45.50
51613;DHT22;37694;51.748;14.326;2022-07-19T12:35:13;22.30;45.40
51613;DHT22;37694;51.748;14.326;2022-07-19T12:37:44;22.30;45.20
51613;DHT22;37694;51.748;14.326;2022-07-19T12:42:50;22.20;45.40
51613;DHT22;37694;51.748;14.326;2022-07-19T12:45:29;22.20;45.30
51613;DHT22;37694;51.748;14.326;2022-07-19T12:47:55;22.20;45.30
51613;DHT22;37694;51.748;14.326;2022-07-19T12:50:27;22.20;45.20
51613;DHT22;37694;51.748;14.326;2022-07-19T12:52:55;22.20;45.00
51613;DHT22;37694;51.748;14.326;2022-07-19T12:55:22;22.20;45.00
51613;DHT22;37694;51.748;14.326;2022-07-19T12:57:49;22.20;45.30
51613;DHT22;37694;51.748;14.326;2022-07-19T13:00:16;22.30;45.30
51613;DHT22;37694;51.748;14.326;2022-07-19T13:02:43;22.20;45.20
51613;DHT22;37694;51.748;14.326;2022-07-19T13:05:09;22.30;45.10
51613;DHT22;37694;51.748;14.326;2022-07-19T13:07:35;22.30;45.10
51613;DHT22;37694;51.748;14.326;2022-07-19T13:10:01;22.20;45.10
51613;DHT22;37694;51.748;14.326;2022-07-19T13:12:26;22.20;45.00
51613;DHT22;37694;51.748;14.326;2022-07-19T13:14:52;22.20;45.00
51613;DHT22;37694;51.748;14.326;2022-07-19T13:17:17;22.20;45.10
51613;DHT22;37694;51.748;14.326;2022-07-19T13:19:43;22.20;45.10
51613;DHT22;37694;51.748;14.326;2022-07-19T13:22:08;22.20;45.00
51613;DHT22;37694;51.748;14.326;2022-07-19T13:24:34;22.20;44.80
51613;DHT22;37694;51.748;14.326;2022-07-19T13:27:00;22.20;45.00
51613;DHT22;37694;51.748;14.326;2022-07-19T13:29:26;22.10;45.00
51613;DHT22;37694;51.748;14.326;2022-07-19T13:31:51;22.20;45.80
51613;DHT22;37694;51.748;14.326;2022-07-19T13:34:17;22.10;44.90
51613;DHT22;37694;51.748;14.326;2022-07-19T13:36:43;22.10;44.90
51613;DHT22;37694;51.748;14.326;2022-07-19T13:39:09;22.10;45.60
51613;DHT22;37694;51.748;14.326;2022-07-19T13:41:37;22.10;44.70
51613;DHT22;37694;51.748;14.326;2022-07-19T13:44:04;22.10;45.00
51613;DHT22;37694;51.748;14.326;2022-07-19T13:46:29;22.20;45.10
51613;DHT22;37694;51.748;14.326;2022-07-19T13:48:55;22.20;46.30
51613;DHT22;37694;51.748;14.326;2022-07-19T13:51:21;22.20;47.50
51613;DHT22;37694;51.748;14.326;2022-07-19T13:53:46;22.20;47.70
51613;DHT22;37694;51.748;14.326;2022-07-19T13:56:13;22.30;47.90
51613;DHT22;37694;51.748;14.326;2022-07-19T13:58:39;22.30;47.80
51613;DHT22;37694;51.748;14.326;2022-07-19T14:01:05;22.30;47.80
51613;DHT22;37694;51.748;14.326;2022-07-19T14:03:30;22.40;48.20
51613;DHT22;37694;51.748;14.326;2022-07-19T14:05:56;22.40;47.90
51613;DHT22;37694;51.748;14.326;2022-07-19T14:08:22;22.30;47.90
51613;DHT22;37694;51.748;14.326;2022-07-19T14:10:47;22.30;47.50
51613;DHT22;37694;51.748;14.326;2022-07-19T14:13:13;22.20;47.80
51613;DHT22;37694;51.748;14.326;2022-07-19T14:15:39;22.20;48.00
51613;DHT22;37694;51.748;14.326;2022-07-19T14:18:05;22.20;48.00
51613;DHT22;37694;51.748;14.326;2022-07-19T14:20:31;22.20;47.90
51613;DHT22;37694;51.748;14.326;2022-07-19T14:22:56;22.20;47.90
51613;DHT22;37694;51.748;14.326;2022-07-19T14:25:22;22.20;47.90
51613;DHT22;37694;51.748;14.326;2022-07-19T14:27:48;22.20;48.00
51613;DHT22;37694;51.748;14.326;2022-07-19T14:30:14;22.20;48.00
51613;DHT22;37694;51.748;14.326;2022-07-19T14:32:41;22.20;48.00
51613;DHT22;37694;51.748;14.326;2022-07-19T14:35:07;22.20;48.00
51613;DHT22;37694;51.748;14.326;2022-07-19T14:37:33;22.20;48.00
51613;DHT22;37694;51.748;14.326;2022-07-19T14:39:58;22.20;48.00
51613;DHT22;37694;51.748;14.326;2022-07-19T14:42:24;22.20;47.90
51613;DHT22;37694;51.748;14.326;2022-07-19T14:44:50;22.20;47.80
51613;DHT22;37694;51.748;14.326;2022-07-19T14:47:15;22.30;48.20
51613;DHT22;37694;51.748;14.326;2022-07-19T14:49:41;22.30;47.20
51613;DHT22;37694;51.748;14.326;2022-07-19T14:52:07;22.20;47.40
51613;DHT22;37694;51.748;14.326;2022-07-19T14:54:32;22.20;47.40
51613;DHT22;37694;51.748;14.326;2022-07-19T14:56:58;22.10;47.30
51613;DHT22;37694;51.748;14.326;2022-07-19T14:59:24;22.10;47.10
51613;DHT22;37694;51.748;14.326;2022-07-19T15:01:51;22.10;46.60
51613;DHT22;37694;51.748;14.326;2022-07-19T15:04:17;22.00;48.00
51613;DHT22;37694;51.748;14.326;2022-07-19T15:06:43;22.00;47.10
51613;DHT22;37694;51.748;14.326;2022-07-19T15:09:09;22.00;46.80
51613;DHT22;37694;51.748;14.326;2022-07-19T15:11:37;21.90;47.10
51613;DHT22;37694;51.748;14.326;2022-07-19T15:14:03;21.90;46.90
51613;DHT22;37694;51.748;14.326;2022-07-19T15:16:28;21.90;47.10
51613;DHT22;37694;51.748;14.326;2022-07-19T15:18:54;21.90;47.00
51613;DHT22;37694;51.748;14.326;2022-07-19T15:21:20;22.00;47.00
51613;DHT22;37694;51.748;14.326;2022-07-19T15:23:46;22.00;47.20
51613;DHT22;37694;51.748;14.326;2022-07-19T15:26:12;22.00;46.90
51613;DHT22;37694;51.748;14.326;2022-07-19T15:28:38;22.00;47.50
51613;DHT22;37694;51.748;14.326;2022-07-19T15:31:05;22.10;47.30
51613;DHT22;37694;51.748;14.326;2022-07-19T15:33:31;22.20;47.10
51613;DHT22;37694;51.748;14.326;2022-07-19T15:35:57;22.20;47.00
51613;DHT22;37694;51.748;14.326;2022-07-19T15:38:23;22.20;46.80